createdAt,value
2019-05-15T00:01:19.269Z,43.30
2019-05-15T00:03:49.295Z,43.30
2019-05-15T00:06:19.043Z,43.30
2019-05-15T00:08:48.091Z,43.40
2019-05-15T00:11:19.026Z,43.40
2019-05-15T00:13:48.317Z,43.40
2019-05-15T00:16:18.072Z,43.40
2019-05-15T00:18:48.228Z,43.50
2019-05-15T00:21:17.996Z,43.40
2019-05-15T00:23:49.248Z,43.50
2019-05-15T00:26:18.184Z,43.50
2019-05-15T00:28:48.004Z,43.60
2019-05-15T00:31:18.604Z,43.60
2019-05-15T00:33:48.226Z,43.60
2019-05-15T00:36:19.044Z,43.70
2019-05-15T00:38:48.362Z,43.70
2019-05-15T00:41:18.506Z,43.70
2019-05-15T00:43:49.402Z,43.70
2019-05-15T00:46:18.329Z,43.70
2019-05-15T00:48:48.796Z,43.70
2019-05-15T00:51:19.508Z,43.70
2019-05-15T00:53:48.320Z,43.80
2019-05-15T00:56:19.261Z,43.90
2019-05-15T00:58:48.213Z,43.90
2019-05-15T01:01:19.080Z,43.90
2019-05-15T01:03:49.172Z,43.90
2019-05-15T01:06:19.093Z,43.90
2019-05-15T01:08:48.269Z,44.00
2019-05-15T01:11:19.007Z,43.90
2019-05-15T01:13:48.176Z,44.10
2019-05-15T01:16:18.631Z,44.10
2019-05-15T01:18:49.081Z,44.10
2019-05-15T01:21:18.795Z,44.10
2019-05-15T01:23:48.422Z,44.10
2019-05-15T01:26:18.815Z,44.10
2019-05-15T01:28:49.420Z,44.10
2019-05-15T01:31:19.052Z,44.10
2019-05-15T01:33:48.124Z,44.20
2019-05-15T01:36:19.108Z,44.20
2019-05-15T01:38:48.090Z,44.20
2019-05-15T01:41:18.740Z,44.30
2019-05-15T01:43:48.959Z,44.30
2019-05-15T01:46:19.097Z,44.30
2019-05-15T01:48:49.279Z,44.40
2019-05-15T01:51:18.509Z,44.30
2019-05-15T01:53:48.026Z,44.40
2019-05-15T01:56:18.794Z,44.40
2019-05-15T01:58:48.681Z,44.40
2019-05-15T02:01:19.265Z,44.40
2019-05-15T02:03:49.289Z,44.40
2019-05-15T02:06:18.965Z,44.50
2019-05-15T02:08:49.674Z,44.50
2019-05-15T02:11:18.130Z,44.50
2019-05-15T02:13:48.022Z,44.50
2019-05-15T02:16:18.980Z,44.50
2019-05-15T02:18:48.917Z,44.50
2019-05-15T02:21:18.332Z,44.60
2019-05-15T02:23:48.177Z,44.60
2019-05-15T02:26:18.878Z,44.60
2019-05-15T02:28:48.801Z,44.60
2019-05-15T02:31:19.630Z,44.70
2019-05-15T02:33:49.886Z,44.60
2019-05-15T02:36:20.468Z,44.60
2019-05-15T02:38:48.721Z,45.30
2019-05-15T02:41:19.533Z,44.70
2019-05-15T02:43:50.065Z,44.80
2019-05-15T02:46:19.486Z,44.80
2019-05-15T02:48:48.938Z,44.80
2019-05-15T02:51:19.289Z,44.90
2019-05-15T02:53:50.099Z,44.80
2019-05-15T02:56:20.379Z,44.80
2019-05-15T02:58:49.136Z,44.80
2019-05-15T03:01:18.901Z,44.90
2019-05-15T03:03:49.661Z,44.90
2019-05-15T03:06:19.251Z,44.90
2019-05-15T03:08:49.661Z,45.00
2019-05-15T03:11:19.074Z,45.00
2019-05-15T03:13:50.505Z,45.00
2019-05-15T03:16:19.494Z,45.00
2019-05-15T03:18:50.466Z,45.00
2019-05-15T03:21:18.866Z,45.00
2019-05-15T03:23:50.540Z,45.10
2019-05-15T03:26:19.807Z,45.10
2019-05-15T03:28:49.582Z,45.10
2019-05-15T03:31:40.136Z,45.10
2019-05-15T03:33:53.301Z,45.10
2019-05-15T03:36:23.545Z,45.10
2019-05-15T03:38:49.858Z,45.10
2019-05-15T03:41:19.668Z,45.20
2019-05-15T03:43:49.631Z,45.20
2019-05-15T03:46:19.988Z,45.20
2019-05-15T03:48:48.850Z,45.30
2019-05-15T03:51:19.932Z,45.30
2019-05-15T03:53:49.692Z,45.30
2019-05-15T03:56:19.079Z,45.20
2019-05-15T03:58:49.378Z,45.20
2019-05-15T04:01:32.514Z,45.20
2019-05-15T04:03:49.579Z,45.30
2019-05-15T04:06:19.257Z,45.20
2019-05-15T04:08:49.561Z,45.30
2019-05-15T04:11:20.263Z,45.30
2019-05-15T04:13:49.946Z,45.30
2019-05-15T04:16:19.242Z,45.30
2019-05-15T04:18:49.051Z,45.40
2019-05-15T04:21:20.085Z,45.40
2019-05-15T04:23:49.979Z,45.30
2019-05-15T04:26:19.401Z,45.30
2019-05-15T04:28:49.445Z,45.30
2019-05-15T04:31:19.430Z,45.20
2019-05-15T04:33:49.135Z,45.20
2019-05-15T04:36:19.165Z,45.20
2019-05-15T04:38:49.836Z,45.10
2019-05-15T04:41:19.810Z,45.10
2019-05-15T04:43:49.355Z,45.10
2019-05-15T04:49:29.173Z,45.10
2019-05-15T04:52:03.368Z,45.00
2019-05-15T04:54:49.503Z,45.00
2019-05-15T04:57:19.398Z,44.90
2019-05-15T05:00:09.695Z,44.90
2019-05-15T05:03:20.086Z,44.90
2019-05-15T05:05:59.078Z,44.80
2019-05-15T05:08:29.181Z,44.70
2019-05-15T05:11:01.050Z,44.70
2019-05-15T05:13:29.873Z,44.60
2019-05-15T05:39:35.621Z,44.10
2019-05-15T05:42:04.393Z,44.20
2019-05-15T05:44:32.977Z,44.20
2019-05-15T05:49:43.906Z,44.20
2019-05-15T05:55:04.760Z,44.20
2019-05-15T05:57:38.172Z,44.30
2019-05-15T06:00:10.094Z,44.20
2019-05-15T06:03:01.722Z,44.30
2019-05-15T06:11:09.961Z,44.20
2019-05-15T06:22:27.691Z,44.20
2019-05-15T06:24:57.896Z,44.20
2019-05-15T06:27:27.932Z,44.20
2019-05-15T06:29:57.985Z,44.10
2019-05-15T06:32:29.625Z,44.10
2019-05-15T06:34:58.620Z,44.10
2019-05-15T06:37:28.677Z,44.10
2019-05-15T06:39:58.815Z,44.00
2019-05-15T06:42:28.390Z,44.10
2019-05-15T06:44:58.958Z,44.00
2019-05-15T06:47:28.431Z,44.00
2019-05-15T06:49:58.004Z,43.90
2019-05-15T06:52:28.454Z,43.90
2019-05-15T06:54:59.195Z,43.80
2019-05-15T06:57:28.719Z,43.70
2019-05-15T06:59:57.989Z,43.70
2019-05-15T07:02:28.521Z,43.60
2019-05-15T07:04:58.360Z,43.50
2019-05-15T07:07:28.771Z,43.40
2019-05-15T07:09:58.164Z,43.30
2019-05-15T07:12:28.123Z,43.30
2019-05-15T07:14:58.284Z,43.20
2019-05-15T07:17:28.732Z,43.20
2019-05-15T07:19:59.152Z,43.20
2019-05-15T07:22:28.965Z,43.20
2019-05-15T07:24:58.276Z,43.70
2019-05-15T07:27:28.320Z,43.10
2019-05-15T07:29:58.382Z,43.00
2019-05-15T07:43:32.653Z,42.90
2019-05-15T07:46:01.854Z,42.80
2019-05-15T07:48:30.663Z,42.80
2019-05-15T07:56:48.816Z,42.60
2019-05-15T07:59:18.718Z,43.10
2019-05-15T08:01:48.929Z,42.50
2019-05-15T08:04:28.141Z,42.50
2019-05-15T08:06:49.078Z,42.60
2019-05-15T08:09:18.125Z,42.60
2019-05-15T08:11:48.590Z,42.60
2019-05-15T08:14:18.492Z,42.50
2019-05-15T08:16:48.477Z,42.40
2019-05-15T08:19:23.832Z,42.30
2019-05-15T08:21:52.560Z,42.30
2019-05-15T08:24:21.198Z,42.30
2019-05-15T08:26:49.967Z,42.30
2019-05-15T08:29:21.593Z,42.20
2019-05-15T08:31:48.883Z,42.20
2019-05-15T08:34:19.496Z,42.20
2019-05-15T08:36:48.475Z,42.10
2019-05-15T08:39:19.082Z,42.10
2019-05-15T08:41:48.471Z,42.00
2019-05-15T08:44:18.652Z,41.90
2019-05-15T08:46:48.028Z,41.80
2019-05-15T08:49:19.843Z,41.80
2019-05-15T08:51:48.671Z,41.80
2019-05-15T08:54:18.292Z,41.90
2019-05-15T08:56:48.340Z,41.80
2019-05-15T08:59:18.728Z,41.80
2019-05-15T09:01:48.955Z,41.90
2019-05-15T09:04:30.150Z,41.70
2019-05-15T09:06:49.742Z,41.70
2019-05-15T09:09:18.815Z,41.70
2019-05-15T09:11:48.341Z,41.70
2019-05-15T09:14:18.495Z,41.60
2019-05-15T09:16:48.965Z,41.60
2019-05-15T09:19:18.449Z,41.50
2019-05-15T09:21:49.134Z,41.50
2019-05-15T09:27:00.035Z,41.50
2019-05-15T09:32:19.106Z,41.20
2019-05-15T09:34:54.773Z,41.40
2019-05-15T09:37:18.608Z,41.30
2019-05-15T09:39:48.996Z,41.30
2019-05-15T09:42:18.135Z,41.30
2019-05-15T09:44:48.598Z,41.40
2019-05-15T09:47:18.920Z,41.30
2019-05-15T09:49:50.382Z,41.10
2019-05-15T09:52:22.669Z,40.90
2019-05-15T09:54:49.432Z,40.90
2019-05-15T09:57:18.795Z,41.10
2019-05-15T09:59:58.677Z,41.00
2019-05-15T10:02:29.636Z,41.00
2019-05-15T10:05:06.495Z,40.80
2019-05-15T10:07:48.452Z,40.70
2019-05-15T10:10:19.042Z,40.70
2019-05-15T10:12:49.524Z,40.80
2019-05-15T10:15:18.584Z,40.80
2019-05-15T10:17:50.674Z,40.80
2019-05-15T10:20:18.553Z,40.70
2019-05-15T10:22:48.417Z,40.80
2019-05-15T10:25:18.971Z,39.80
2019-05-15T10:27:48.836Z,40.10
2019-05-15T10:30:18.849Z,40.10
2019-05-15T10:32:48.771Z,40.20
2019-05-15T10:35:25.481Z,40.20
2019-05-15T10:37:48.733Z,40.20
2019-05-15T10:40:20.334Z,40.00
2019-05-15T10:42:49.499Z,40.00
2019-05-15T10:45:19.301Z,39.80
2019-05-15T10:47:49.638Z,39.70
2019-05-15T10:50:19.248Z,40.00
2019-05-15T10:52:48.881Z,40.00
2019-05-15T10:55:18.943Z,40.00
2019-05-15T10:57:48.042Z,39.80
2019-05-15T11:00:19.253Z,40.00
2019-05-15T11:03:13.050Z,40.00
2019-05-15T11:05:54.345Z,40.00
2019-05-15T11:11:25.749Z,40.00
2019-05-15T11:13:54.443Z,39.90
2019-05-15T11:16:23.301Z,40.00
2019-05-15T11:27:41.477Z,39.60
2019-05-15T11:30:10.025Z,39.30
2019-05-15T11:32:39.250Z,39.10
2019-05-15T11:35:08.100Z,39.10
2019-05-15T11:40:51.629Z,39.30
2019-05-15T11:43:20.251Z,39.30
2019-05-15T11:53:58.860Z,39.10
2019-05-15T11:56:34.782Z,39.10
2019-05-15T13:01:16.658Z,42.80
2019-05-15T13:09:42.938Z,42.20
2019-05-15T13:15:00.931Z,42.30
2019-05-15T13:17:53.830Z,42.10
2019-05-15T13:20:22.949Z,42.10
2019-05-15T13:34:22.063Z,41.40
2019-05-15T13:36:50.634Z,40.80
2019-05-15T13:39:19.224Z,40.80
2019-05-15T13:41:48.420Z,41.00
2019-05-15T13:44:18.751Z,41.20
2019-05-15T13:46:47.921Z,41.00
2019-05-15T13:49:18.587Z,40.60
2019-05-15T13:51:48.803Z,40.40
2019-05-15T13:54:18.779Z,40.40
2019-05-15T13:56:48.801Z,40.50
2019-05-15T13:59:17.679Z,40.30
2019-05-15T14:01:48.434Z,39.90
2019-05-15T14:04:18.343Z,39.90
2019-05-15T14:06:48.716Z,39.50
2019-05-15T14:09:16.965Z,39.40
2019-05-15T14:11:48.895Z,39.30
2019-05-15T14:14:15.903Z,38.80
2019-05-15T14:16:44.464Z,38.40
2019-05-15T14:19:13.038Z,38.10
2019-05-15T14:21:41.566Z,37.60
2019-05-15T14:24:10.160Z,37.20
2019-05-15T14:26:38.709Z,37.10
2019-05-15T14:29:08.994Z,37.10
2019-05-15T14:31:39.479Z,36.50
2019-05-15T14:34:08.828Z,36.20
2019-05-15T14:36:37.455Z,35.70
2019-05-15T14:39:08.144Z,35.30
2019-05-15T14:41:38.192Z,35.40
2019-05-15T14:44:17.294Z,34.50
2019-05-15T14:46:38.239Z,34.10
2019-05-15T14:49:09.041Z,33.90
2019-05-15T14:51:39.180Z,33.60
2019-05-15T14:54:09.082Z,33.40
2019-05-15T14:56:38.338Z,33.10
2019-05-15T14:59:09.161Z,32.80
2019-05-15T15:01:38.371Z,32.40
2019-05-15T15:04:08.831Z,31.60
2019-05-15T15:06:37.403Z,31.40
2019-05-15T15:09:08.453Z,31.00
2019-05-15T15:11:38.553Z,30.30
2019-05-15T15:14:08.682Z,30.30
2019-05-15T15:16:38.456Z,30.10
2019-05-15T15:19:07.157Z,29.80
2019-05-15T15:21:38.166Z,29.40
2019-05-15T15:24:08.278Z,29.30
2019-05-15T15:26:38.890Z,29.30
2019-05-15T15:29:08.514Z,29.10
2019-05-15T15:31:38.844Z,28.90
2019-05-15T15:34:08.619Z,28.20
2019-05-15T15:36:37.977Z,28.20
2019-05-15T15:39:08.309Z,27.80
2019-05-15T15:41:39.036Z,27.70
2019-05-15T15:44:08.584Z,27.70
2019-05-15T15:46:39.530Z,27.50
2019-05-15T15:49:08.836Z,27.60
2019-05-15T15:51:38.078Z,27.60
2019-05-15T15:54:08.487Z,27.60
2019-05-15T15:56:39.178Z,27.40
2019-05-15T15:59:08.795Z,27.30
2019-05-15T16:01:39.006Z,27.20
2019-05-15T16:04:08.489Z,27.10
2019-05-15T16:06:38.808Z,27.10
2019-05-15T16:09:08.515Z,27.00
2019-05-15T16:11:38.566Z,27.00
2019-05-15T16:14:09.178Z,27.00
2019-05-15T16:16:38.103Z,27.00
2019-05-15T16:19:06.873Z,26.90
2019-05-15T16:21:35.506Z,26.80
2019-05-15T16:24:14.867Z,26.80
2019-05-15T16:26:34.305Z,26.80
2019-05-15T16:29:02.903Z,26.90
2019-05-15T16:31:31.501Z,26.80
2019-05-15T16:34:00.477Z,26.90
2019-05-15T16:36:29.058Z,26.90
2019-05-15T16:39:07.827Z,27.30
2019-05-15T16:41:29.048Z,27.40
2019-05-15T16:43:57.888Z,27.80
2019-05-15T16:46:28.172Z,28.90
2019-05-15T16:48:58.346Z,30.50
2019-05-15T16:51:28.503Z,32.00
2019-05-15T16:53:58.198Z,33.30
2019-05-15T16:56:28.368Z,34.00
2019-05-15T16:58:59.514Z,34.40
2019-05-15T17:01:29.023Z,34.70
2019-05-15T17:03:57.579Z,34.80
2019-05-15T17:06:28.103Z,34.90
2019-05-15T17:08:57.973Z,34.60
2019-05-15T17:11:28.837Z,34.70
2019-05-15T17:13:59.017Z,34.60
2019-05-15T17:16:27.219Z,34.30
2019-05-15T17:18:58.167Z,34.30
2019-05-15T17:21:28.421Z,34.20
2019-05-15T17:23:58.220Z,34.30
2019-05-15T17:26:28.798Z,34.20
2019-05-15T17:28:58.178Z,34.20
2019-05-15T17:31:28.645Z,34.30
2019-05-15T17:33:58.207Z,34.20
2019-05-15T17:36:31.481Z,34.80
2019-05-15T17:38:58.090Z,34.10
2019-05-15T17:41:28.597Z,34.10
2019-05-15T17:43:57.980Z,34.10
2019-05-15T17:46:29.328Z,34.10
2019-05-15T17:49:05.471Z,34.20
2019-05-15T17:51:27.684Z,34.10
2019-05-15T17:53:58.295Z,34.10
2019-05-15T17:56:28.358Z,34.20
2019-05-15T17:58:58.184Z,34.10
2019-05-15T18:01:28.221Z,34.20
2019-05-15T18:03:59.173Z,34.20
2019-05-15T18:06:28.916Z,34.20
2019-05-15T18:08:59.328Z,34.10
2019-05-15T18:11:28.801Z,34.30
2019-05-15T18:13:58.229Z,34.30
2019-05-15T18:16:26.963Z,34.40
2019-05-15T18:18:55.516Z,34.40
2019-05-15T18:21:24.120Z,34.50
2019-05-15T18:23:52.694Z,34.50
2019-05-15T18:26:21.244Z,34.50
2019-05-15T18:28:49.757Z,34.60
2019-05-15T18:31:18.343Z,34.70
2019-05-15T18:33:53.741Z,34.60
2019-05-15T18:36:17.188Z,34.70
2019-05-15T18:38:48.068Z,34.70
2019-05-15T18:41:17.977Z,34.70
2019-05-15T18:43:48.279Z,34.70
2019-05-15T18:46:18.294Z,34.70
2019-05-15T18:48:48.231Z,34.70
2019-05-15T18:51:16.820Z,34.70
2019-05-15T18:53:45.416Z,34.70
2019-05-15T18:56:13.966Z,34.70
2019-05-15T18:58:42.508Z,34.70
2019-05-15T19:01:11.068Z,34.70
2019-05-15T19:03:39.648Z,34.70
2019-05-15T19:06:08.898Z,34.80
2019-05-15T19:08:38.804Z,34.80
2019-05-15T19:11:07.439Z,34.80
2019-05-15T19:13:35.946Z,34.90
2019-05-15T19:16:04.688Z,35.00
2019-05-15T19:18:33.278Z,35.10
2019-05-15T19:21:01.887Z,35.10
2019-05-15T19:23:30.450Z,35.10
2019-05-15T19:25:58.940Z,35.10
2019-05-15T19:28:28.627Z,35.20
2019-05-15T19:30:58.539Z,35.20
2019-05-15T19:33:36.487Z,35.20
2019-05-15T19:35:57.613Z,35.30
2019-05-15T19:38:27.927Z,35.30
2019-05-15T19:41:02.329Z,35.30
2019-05-15T19:43:28.560Z,35.40
2019-05-15T19:45:58.440Z,35.40
2019-05-15T19:48:27.112Z,35.40
2019-05-15T19:50:58.136Z,35.50
2019-05-15T19:53:28.190Z,35.40
2019-05-15T19:55:57.976Z,35.50
2019-05-15T19:58:28.560Z,35.60
2019-05-15T20:00:56.903Z,35.60
2019-05-15T20:03:25.587Z,35.60
2019-05-15T20:05:54.283Z,35.60
2019-05-15T20:08:22.806Z,35.60
2019-05-15T20:10:51.418Z,35.60
2019-05-15T20:13:19.895Z,35.60
2019-05-15T20:15:48.711Z,35.60
2019-05-15T20:18:18.468Z,35.70
2019-05-15T20:20:47.812Z,35.70
2019-05-15T20:23:18.273Z,35.70
2019-05-15T20:25:46.739Z,35.70
2019-05-15T20:28:15.343Z,35.70
2019-05-15T20:30:43.843Z,35.70
2019-05-15T20:33:12.551Z,35.70
2019-05-15T20:35:41.042Z,35.70
2019-05-15T20:38:09.692Z,35.70
2019-05-15T20:40:38.180Z,35.70
2019-05-15T20:43:08.218Z,35.70
2019-05-15T20:45:36.976Z,35.60
2019-05-15T20:48:05.474Z,35.60
2019-05-15T20:50:34.266Z,35.60
2019-05-15T20:53:02.885Z,35.50
2019-05-15T20:55:31.443Z,35.50
2019-05-15T20:58:00.036Z,35.50
2019-05-15T21:00:28.627Z,35.50
2019-05-15T21:02:57.825Z,35.50
2019-05-15T21:05:27.813Z,35.50
2019-05-15T21:07:56.571Z,35.50
2019-05-15T21:10:25.196Z,35.50
2019-05-15T21:12:53.779Z,35.50
2019-05-15T21:15:22.377Z,35.50
2019-05-15T21:18:09.817Z,35.60
2019-05-15T21:20:21.185Z,35.60
2019-05-15T21:22:49.685Z,35.60
2019-05-15T21:25:19.639Z,35.60
2019-05-15T21:27:48.974Z,35.70
2019-05-15T21:30:19.002Z,35.80
2019-05-15T21:32:49.416Z,35.70
2019-05-15T21:35:18.133Z,35.80
2019-05-15T21:37:48.647Z,35.90
2019-05-15T21:40:17.472Z,35.80
2019-05-15T21:42:48.837Z,36.00
2019-05-15T21:45:18.286Z,36.00
2019-05-15T21:47:47.004Z,36.00
2019-05-15T21:50:15.558Z,36.00
2019-05-15T21:52:44.138Z,36.10
2019-05-15T21:55:12.705Z,36.10
2019-05-15T21:57:42.827Z,36.10
2019-05-15T22:00:14.814Z,36.10
2019-05-15T22:02:43.423Z,36.10
2019-05-15T22:05:12.008Z,36.20
2019-05-15T22:07:40.547Z,36.20
2019-05-15T22:10:11.075Z,36.30
2019-05-15T22:12:39.319Z,36.30
2019-05-15T22:15:08.989Z,36.30
2019-05-15T22:17:39.011Z,36.40
2019-05-15T22:20:08.659Z,36.40
2019-05-15T22:22:37.371Z,36.30
2019-05-15T22:25:08.563Z,36.40
2019-05-15T22:27:38.279Z,36.40
2019-05-15T22:30:08.281Z,36.50
2019-05-15T22:32:38.687Z,36.50
2019-05-15T22:35:13.470Z,36.60
2019-05-15T22:37:38.676Z,36.60
2019-05-15T22:40:08.869Z,36.60
2019-05-15T22:42:39.129Z,36.70
2019-05-15T22:45:11.605Z,36.60
2019-05-15T22:47:39.271Z,37.30
2019-05-15T22:50:08.354Z,36.70
2019-05-15T22:52:38.878Z,36.70
2019-05-15T22:55:07.429Z,36.80
2019-05-15T22:57:36.010Z,36.80
2019-05-15T23:00:05.824Z,36.80
2019-05-15T23:02:34.289Z,36.80
2019-05-15T23:05:03.711Z,36.90
2019-05-15T23:07:32.195Z,36.90
2019-05-15T23:10:00.775Z,36.90
2019-05-15T23:12:29.283Z,36.90
2019-05-15T23:14:57.964Z,36.90
2019-05-15T23:17:27.736Z,36.90
2019-05-15T23:19:58.171Z,36.90
2019-05-15T23:22:27.958Z,36.90
2019-05-15T23:24:58.467Z,37.00
2019-05-15T23:27:28.743Z,37.00
2019-05-15T23:29:58.214Z,37.10
2019-05-15T23:32:28.766Z,37.00
2019-05-15T23:34:58.433Z,37.10
2019-05-15T23:37:28.073Z,37.10
2019-05-15T23:39:58.000Z,37.20
2019-05-15T23:42:29.044Z,37.20
2019-05-15T23:44:56.793Z,37.20
2019-05-15T23:47:25.324Z,37.20
2019-05-15T23:49:53.874Z,37.30
2019-05-15T23:52:22.440Z,37.30
2019-05-15T23:54:50.919Z,37.30
2019-05-15T23:57:19.437Z,37.40
2019-05-15T23:59:48.001Z,37.40
